Schagen, Netherlands
Current Conditions -  °F | °C
As of 11:25 AM on Wednesday 22 Oct 2014 (Local Time) from EHKD Reporting Station
Light Rain Light Rain  
Wind Chill: 52°   Ceiling: 3600
Heat Index: 52°   Visibility: 6mi
Dew Point: 45°   Wind: 24mph
Humidity: 76%   Direction: 330°NNW
Pressure: 30.03"   Gusts: 37mph
Location:  52.79°N, 4.8°E
Report Text: EHKD 220925Z AUTO 33021G32KT 9999 -RA FEW021 SCT026 BKN036 11/07 Q1017 BLU 31018G32KT 9999 FEW022 BKN045 TEMPO FEW015 SCT020CB BKN035
Loading
Personal Weather Stations






























Interactive Weather Map
Tropical Storm Tracking
New forecast layout! Learn more

10-Day Weather Forecast

Advertisements
Track Severe Weather on mobile